Latest Weather Observations for Point Fawcett

IDD60901

Issued at 8:41 pm CST Monday 2 March 2015 (issued every 10 minutes, with the page automatically refreshed every 10 minutes)

About weather observations | Map of Darwin area stations | Latest observations for Darwin area | Other Formats
Station Details ID: 200731 Name: POINT FAWCETT Lat: -11.76 Lon: 130.03 Height: 6.5 m
Data from the previous 72 hours. | See also: Recent months at Point Fawcett
Date/Time
CST
Tmp

°C
App
Tmp
°C
Dew
Point
°C
Rel
Hum
%
Delta-T

°C
Wind Press
QNH
hPa
Press
MSL
hPa
Rain
since
9 am
mm
Dir
 
Spd
km/h
Gust
km/h
Spd
kts
Gust
kts
02/08:30pm 26.4 30.4 24.4 89 1.4 W 11 15 6 8 1004.4 - -
02/08:00pm 27.6 32.5 25.8 90 1.3 SW 11 20 6 11 1004.7 - -
02/07:30pm 26.4 29.1 23.5 84 2.0 SSW 15 24 8 13 1004.1 - -
02/07:00pm 28.7 33.5 26.3 87 1.7 WSW 13 17 7 9 1003.6 - -
02/06:30pm 29.0 34.4 26.0 84 2.1 SW 9 13 5 7 1003.6 - -
02/06:00pm 29.2 34.1 25.8 82 2.4 WSW 11 15 6 8 1003.2 1003.1 -
02/05:30pm 29.3 33.6 25.5 80 2.7 SW 13 19 7 10 1003.0 - -
02/05:00pm 29.3 33.7 25.1 78 2.9 SW 11 17 6 9 1002.9 - -
02/04:30pm 29.0 33.1 24.6 77 3.1 WSW 11 19 6 10 1003.0 - -
02/04:00pm 28.8 32.3 24.8 79 2.8 WSW 15 22 8 12 1003.3 - -
02/03:30pm 27.9 30.6 24.7 83 2.2 W 19 24 10 13 1003.6 - -
02/03:00pm 27.8 30.9 24.8 84 2.1 W 17 20 9 11 1003.7 1003.6 -
02/02:30pm 27.5 30.7 24.9 86 1.8 W 17 20 9 11 1003.9 - -
02/02:00pm 26.9 29.9 24.7 88 1.5 W 17 22 9 12 1004.5 - -
02/01:30pm 26.6 28.8 24.3 87 1.6 W 20 26 11 14 1004.9 - -
02/01:00pm 26.7 29.4 25.1 91 1.1 W 20 28 11 15 1005.9 - -
02/12:30pm 25.7 28.5 24.3 92 1.0 SW 17 26 9 14 1006.1 - -
02/12:00pm 25.9 28.9 24.7 93 0.8 WSW 17 26 9 14 1007.3 1007.2 -
02/11:30am 25.1 29.7 24.1 94 0.7 SSW 7 9 4 5 1007.4 - -
02/11:00am 24.8 26.9 23.8 94 0.7 SW 19 32 10 17 1007.4 - -
02/10:30am 24.4 26.0 22.8 91 1.1 S 19 43 10 23 1008.2 - -
02/10:00am 29.2 33.8 26.6 86 1.9 W 15 20 8 11 1006.5 - -
02/09:30am 29.5 33.7 26.5 84 2.1 W 17 24 9 13 1006.7 - -
02/09:00am 29.4 32.8 26.2 83 2.3 W 20 28 11 15 1006.3 1006.2 -
02/08:30am 29.3 33.6 26.7 86 1.9 W 17 22 9 12 1006.4 - -
02/08:00am 29.0 32.6 26.4 86 1.9 W 20 28 11 15 1005.9 - -
02/07:30am 28.8 32.4 26.2 86 1.8 W 19 26 10 14 1005.6 - -
02/07:00am 28.7 32.1 26.1 86 1.8 W 20 26 11 14 1005.2 - -
02/06:30am 28.5 32.3 25.9 86 1.8 W 17 22 9 12 1005.4 - -
02/06:00am 28.5 31.8 25.7 85 2.0 W 19 24 10 13 1005.0 1004.9 -
02/05:30am 28.6 32.0 25.8 85 2.0 W 19 22 10 12 1005.0 - -
02/05:00am 28.4 31.5 25.4 84 2.1 W 19 24 10 13 1004.5 - -
02/04:30am 28.5 31.6 25.7 85 2.0 W 20 28 11 15 1004.4 - -
02/04:00am 28.6 32.0 25.8 85 2.0 W 19 26 10 14 1004.6 - -
02/03:30am 28.4 31.8 25.8 86 1.8 W 19 24 10 13 1004.7 - -
02/03:00am 28.4 32.5 25.8 86 1.8 W 15 20 8 11 1005.1 1005.0 -
02/02:30am 28.4 32.9 25.8 86 1.8 WSW 13 19 7 10 1005.4 - -
02/02:00am 28.4 32.4 25.6 85 2.0 W 15 22 8 12 1005.9 - -
02/01:30am 28.6 32.7 25.8 85 2.0 WSW 15 22 8 12 1006.2 - -
02/01:00am 28.5 32.9 26.3 88 1.6 WSW 15 20 8 11 1006.6 - -
02/12:30am 28.8 32.0 26.4 87 1.7 W 22 28 12 15 1006.1 - -
02/12:00am 28.6 31.9 26.0 86 1.8 W 20 26 11 14 1006.4 1006.3 -
 
Date/Time
CST
Tmp

°C
App
Tmp
°C
Dew
Point
°C
Rel
Hum
%
Delta-T

°C
Wind Press
QNH
hPa
Press
MSL
hPa
Rain
since
9 am
mm
Dir
 
Spd
km/h
Gust
km/h
Spd
kts
Gust
kts
01/11:30pm 28.6 32.1 26.0 86 1.8 W 19 24 10 13 1007.1 - -
01/11:00pm 28.6 32.5 26.0 86 1.8 W 17 22 9 12 1007.7 - -
01/10:30pm 28.5 33.2 26.1 87 1.7 WSW 13 19 7 10 1007.7 - -
01/10:00pm 28.4 32.5 25.8 86 1.8 W 15 20 8 11 1007.4 - -
01/09:30pm 28.4 32.1 25.8 86 1.8 W 17 22 9 12 1007.1 - -
01/09:00pm 28.5 31.5 25.5 84 2.1 W 20 26 11 14 1006.7 1006.6 -
01/08:30pm 28.4 31.2 25.8 86 1.8 W 22 28 12 15 1006.5 - -
01/08:00pm 28.4 31.6 25.8 86 1.8 W 20 26 11 14 1006.3 - -
01/07:30pm 28.5 31.0 25.3 83 2.2 W 22 28 12 15 1005.7 - -
01/07:00pm 28.4 31.1 25.6 85 2.0 W 22 32 12 17 1005.4 - -
01/06:30pm 28.6 30.2 25.8 85 2.0 W 28 35 15 19 1005.3 - -
01/06:00pm 28.7 31.0 25.7 84 2.1 W 24 33 13 18 1005.4 1005.3 -
01/05:30pm 29.0 31.8 25.0 79 2.8 W 19 28 10 15 1005.1 - -
01/05:00pm 29.1 32.0 25.1 79 2.8 W 19 24 10 13 1004.6 - -
01/04:30pm 28.9 31.1 25.5 82 2.4 WNW 24 32 13 17 1004.5 - -
01/04:00pm 28.9 31.2 25.1 80 2.7 WNW 22 30 12 16 1004.9 - -
01/03:30pm 28.6 30.9 25.0 81 2.5 W 22 28 12 15 1004.7 - -
01/03:00pm 28.6 31.1 25.4 83 2.3 W 22 28 12 15 1005.0 1004.9 -
01/02:30pm 29.2 33.3 26.4 85 2.0 W 17 24 9 13 1005.3 - -
01/02:00pm 29.0 31.9 26.0 84 2.1 W 22 30 12 16 1005.6 - -
01/01:30pm 29.3 32.0 26.3 84 2.1 WNW 24 30 13 16 1006.4 - -
01/01:00pm 30.2 34.0 26.8 82 2.4 W 20 30 11 16 1006.9 - -
01/12:30pm 31.0 35.2 27.1 80 2.8 W 19 24 10 13 1007.3 - -
01/12:00pm 30.7 35.1 26.8 80 2.8 W 17 26 9 14 1007.5 1007.4 -
01/11:30am 31.2 35.3 26.9 78 3.1 W 19 24 10 13 1007.5 - -
01/11:00am 30.9 34.8 26.6 78 3.1 W 19 24 10 13 1007.8 - -
01/10:30am 30.6 34.6 26.7 80 2.8 W 19 24 10 13 1008.2 - -
01/10:00am 29.6 33.2 26.4 83 2.3 W 20 26 11 14 1008.3 - -
01/09:30am 29.7 33.1 26.1 81 2.6 W 20 26 11 14 1008.1 - -
01/09:00am 29.2 32.5 26.0 83 2.3 W 20 28 11 15 1007.9 1007.8 -
01/08:30am 29.1 32.3 25.9 83 2.3 W 20 26 11 14 1007.2 - -
01/08:00am 28.9 32.1 25.9 84 2.1 W 20 26 11 14 1006.8 - -
01/07:30am 28.7 31.4 25.7 84 2.1 W 22 30 12 16 1006.2 - -
01/07:00am 28.6 31.8 25.8 85 2.0 W 20 24 11 13 1006.0 - -
01/06:30am 28.6 31.6 25.6 84 2.1 W 20 26 11 14 1005.8 - -
01/06:00am 28.6 31.8 25.8 85 2.0 W 20 28 11 15 1005.7 1005.6 -
01/05:30am 28.7 31.3 25.5 83 2.3 W 22 26 12 14 1005.6 - -
01/05:00am 28.5 31.1 25.5 84 2.1 W 22 26 12 14 1005.5 - -
01/04:30am 28.6 31.6 25.6 84 2.1 W 20 28 11 15 1005.4 - -
01/04:00am 28.6 31.6 25.6 84 2.1 W 20 24 11 13 1005.7 - -
01/03:30am 28.7 31.6 25.9 85 2.0 W 22 28 12 15 1005.7 - -
01/03:00am 28.5 31.2 25.7 85 2.0 W 22 30 12 16 1005.7 1005.6 -
01/02:30am 28.5 31.6 25.7 85 2.0 W 20 28 11 15 1006.4 - -
01/02:00am 28.4 31.4 25.2 83 2.2 W 19 24 10 13 1006.7 - -
01/01:30am 28.6 31.3 25.6 84 2.1 W 22 28 12 15 1006.8 - -
01/01:00am 28.6 31.6 25.6 84 2.1 W 20 26 11 14 1007.0 - -
01/12:30am 28.4 31.4 25.2 83 2.2 W 19 24 10 13 1007.5 - -
01/12:00am 28.6 31.7 25.4 83 2.3 W 19 24 10 13 1008.1 1008.0 -
 
Date/Time
CST
Tmp

°C
App
Tmp
°C
Dew
Point
°C
Rel
Hum
%
Delta-T

°C
Wind Press
QNH
hPa
Press
MSL
hPa
Rain
since
9 am
mm
Dir
 
Spd
km/h
Gust
km/h
Spd
kts
Gust
kts
28/11:30pm 28.5 31.3 25.3 83 2.2 W 20 28 11 15 1008.1 - -
28/11:00pm 28.7 31.6 25.9 85 2.0 W 22 26 12 14 1008.5 - -
28/10:30pm 28.9 32.3 26.1 85 2.0 W 20 28 11 15 1008.7 - -
28/10:00pm 28.7 32.0 25.7 84 2.1 W 19 26 10 14 1008.3 - -
28/09:30pm 28.7 32.1 25.9 85 2.0 W 19 26 10 14 1007.7 - -
28/09:00pm 28.7 31.1 24.3 77 3.1 W 19 24 10 13 1006.8 1006.7 -
28/08:30pm 28.3 31.5 24.3 79 2.8 W 15 19 8 10 1006.4 - -
28/08:00pm 28.1 31.8 24.5 81 2.5 WSW 13 19 7 10 1006.1 - -
28/07:30pm 28.2 31.3 24.8 82 2.4 W 17 22 9 12 1005.8 - -
28/07:00pm 28.6 31.6 25.2 82 2.4 W 19 24 10 13 1005.6 - -
28/06:30pm 29.3 32.8 25.5 80 2.7 W 17 24 9 13 1005.3 - -
28/06:00pm 29.7 32.9 25.9 80 2.7 W 20 26 11 14 1005.1 1005.0 -
28/05:30pm 29.7 33.0 25.7 79 2.8 W 19 28 10 15 1005.1 - -
28/05:00pm 29.2 33.1 25.4 80 2.7 W 15 20 8 11 1005.2 - -
28/04:30pm 29.4 32.8 25.8 81 2.6 WSW 19 24 10 13 1005.3 - -
28/04:00pm 29.6 32.4 25.8 80 2.7 W 22 30 12 16 1005.6 - -
28/03:30pm 30.2 32.9 25.7 77 3.2 W 22 30 12 16 1005.7 - -
28/03:00pm 30.3 33.0 26.2 79 2.9 W 24 32 13 17 1006.2 1006.1 -
28/02:30pm 30.3 33.1 25.8 77 3.2 W 22 32 12 17 1006.4 - -
28/02:00pm 31.4 34.7 26.0 73 3.9 W 20 30 11 16 1006.5 - -
28/01:30pm 30.5 33.2 26.2 78 3.1 W 24 33 13 18 1007.2 - -
28/01:00pm 30.0 32.5 26.0 79 2.8 W 24 32 13 17 1007.7 - -
28/12:30pm 29.7 32.8 26.3 82 2.4 W 22 28 12 15 1007.9 - -
28/12:00pm 30.0 32.8 26.4 81 2.6 W 24 30 13 16 1008.2 1008.1 -
28/11:30am 29.4 31.3 25.6 80 2.7 WNW 26 33 14 18 1008.3 - -
28/11:00am 29.9 32.0 25.9 79 2.8 WNW 26 32 14 17 1008.6 - -
28/10:30am 29.4 31.5 25.4 79 2.8 W 24 30 13 16 1008.7 - -
28/10:00am 29.2 31.7 25.4 80 2.7 W 22 30 12 16 1008.7 - -
28/09:30am 29.2 30.3 25.6 81 2.5 W 30 35 16 19 1008.0 - -
28/09:00am 28.7 30.4 25.3 82 2.4 W 26 33 14 18 1007.7 1007.6 -
28/08:30am 28.4 30.0 25.2 83 2.2 W 26 32 14 17 1007.4 - -
28/08:00am 28.0 30.7 25.0 84 2.1 W 20 28 11 15 1007.2 - -
28/07:30am 27.9 30.9 25.3 86 1.8 WSW 19 26 10 14 1006.9 - -
28/07:00am 27.2 31.1 25.4 90 1.3 SW 15 20 8 11 1007.1 - -
28/06:30am 26.6 31.6 24.8 90 1.3 S 7 11 4 6 1007.3 - -
28/06:00am 26.9 31.6 24.9 89 1.4 S 9 13 5 7 1006.9 1006.8 -
28/05:30am 27.0 31.1 24.6 87 1.7 SSW 11 20 6 11 1006.4 - -
28/05:00am 27.0 30.8 24.1 84 2.0 SSW 11 17 6 9 1005.8 - -
28/04:30am 27.4 30.8 24.7 85 1.9 WSW 15 24 8 13 1005.2 - -
28/04:00am 27.7 30.5 24.9 85 2.0 W 19 24 10 13 1005.7 - -
28/03:30am 27.5 29.6 24.7 85 1.9 WNW 22 26 12 14 1006.1 - -
28/03:00am 27.6 28.5 24.6 84 2.1 W 28 33 15 18 1006.9 1006.8 -
28/02:30am 28.3 29.9 25.7 86 1.8 WNW 28 35 15 19 1007.3 - -
28/02:00am 28.3 29.9 25.1 83 2.2 WNW 26 32 14 17 1007.6 - -
28/01:30am 28.0 29.5 25.0 84 2.1 NW 26 32 14 17 1008.0 - -
28/01:00am 27.9 29.9 25.1 85 2.0 NW 24 32 13 17 1008.0 - -
28/12:30am 27.9 30.0 25.3 86 1.8 WNW 24 30 13 16 1008.5 - -
28/12:00am 27.8 30.5 25.6 88 1.6 WNW 22 30 12 16 1009.1 1009.0 -
 
Date/Time
CST
Tmp

°C
App
Tmp
°C
Dew
Point
°C
Rel
Hum
%
Delta-T

°C
Wind Press
QNH
hPa
Press
MSL
hPa
Rain
since
9 am
mm
Dir
 
Spd
km/h
Gust
km/h
Spd
kts
Gust
kts
27/11:30pm 28.2 30.7 26.0 88 1.6 WNW 24 30 13 16 1009.4 - -
27/11:00pm 28.6 31.6 25.6 84 2.1 W 20 32 11 17 1009.6 - -
27/10:30pm 28.4 31.5 25.4 84 2.1 W 19 24 10 13 1009.1 - -
27/10:00pm 28.3 31.8 25.5 85 2.0 W 17 22 9 12 1008.7 - -
27/09:30pm 28.5 31.4 25.1 82 2.4 W 19 24 10 13 1008.5 - -
27/09:00pm 28.1 31.3 24.9 83 2.2 W 17 22 9 12 1008.2 1008.1 -

Latest Capital City Observations: Canberra | Sydney | Melbourne | Brisbane | Adelaide | Perth | Hobart | Darwin

Other Formats:

Comma delimited format used in spreadsheet applications
http://www.bom.gov.au/fwo/IDD60901/IDD60901.94122.axf

JavaScript Object Notation format (JSON) in row-major order
http://www.bom.gov.au/fwo/IDD60901/IDD60901.94122.json